createdAt,value
2019-05-09T00:01:15.279Z,10.60
2019-05-09T00:03:44.715Z,10.70
2019-05-09T00:06:15.678Z,10.70
2019-05-09T00:08:45.159Z,10.70
2019-05-09T00:11:14.951Z,10.70
2019-05-09T00:13:44.541Z,10.70
2019-05-09T00:16:14.678Z,10.80
2019-05-09T00:18:44.844Z,10.80
2019-05-09T00:21:23.904Z,10.80
2019-05-09T00:23:54.070Z,10.80
2019-05-09T00:26:24.599Z,10.80
2019-05-09T00:28:57.814Z,10.70
2019-05-09T00:31:38.504Z,10.70
2019-05-09T00:34:10.806Z,10.80
2019-05-09T00:36:40.746Z,10.80
2019-05-09T00:39:10.748Z,10.70
2019-05-09T00:41:40.288Z,10.80
2019-05-09T00:44:19.086Z,10.70
2019-05-09T00:47:01.142Z,10.70
2019-05-09T00:49:30.574Z,10.70
2019-05-09T00:52:00.179Z,10.70
2019-05-09T00:54:29.905Z,10.70
2019-05-09T00:56:59.322Z,10.70
2019-05-09T00:59:28.889Z,10.70
2019-05-09T01:01:58.518Z,10.70
2019-05-09T01:04:28.396Z,10.80
2019-05-09T01:06:57.865Z,10.70
2019-05-09T01:09:27.573Z,10.70
2019-05-09T01:11:57.459Z,10.70
2019-05-09T01:14:27.557Z,10.70
2019-05-09T01:16:57.160Z,10.70
2019-05-09T01:19:27.127Z,10.60
2019-05-09T01:21:57.072Z,10.60
2019-05-09T01:24:28.461Z,10.60
2019-05-09T01:26:58.731Z,10.50
2019-05-09T01:29:33.759Z,10.60
2019-05-09T01:32:08.104Z,10.50
2019-05-09T01:34:38.185Z,10.40
2019-05-09T01:37:08.405Z,10.30
2019-05-09T01:39:38.405Z,10.30
2019-05-09T01:42:08.256Z,10.20
2019-05-09T01:44:37.861Z,10.20
2019-05-09T01:47:08.398Z,10.10
2019-05-09T01:49:38.368Z,10.10
2019-05-09T01:52:08.453Z,10.10
2019-05-09T01:54:39.776Z,10.00
2019-05-09T01:57:09.385Z,10.00
2019-05-09T01:59:39.049Z,10.00
2019-05-09T02:02:09.124Z,10.00
2019-05-09T02:04:39.034Z,10.00
2019-05-09T02:07:08.484Z,9.80
2019-05-09T02:09:37.926Z,9.80
2019-05-09T02:12:07.699Z,9.70
2019-05-09T02:14:54.257Z,9.70
2019-05-09T02:17:57.734Z,9.60
2019-05-09T02:20:17.180Z,9.60
2019-05-09T02:22:47.500Z,9.60
2019-05-09T02:25:17.916Z,9.60
2019-05-09T02:27:47.418Z,9.50
2019-05-09T02:30:17.042Z,9.50
2019-05-09T02:32:47.360Z,9.40
2019-05-09T02:35:17.117Z,9.50
2019-05-09T02:37:49.862Z,9.50
2019-05-09T02:40:19.801Z,9.40
2019-05-09T02:42:49.680Z,9.50
2019-05-09T02:45:19.598Z,9.60
2019-05-09T02:47:49.213Z,9.50
2019-05-09T02:50:19.750Z,9.60
2019-05-09T02:52:49.595Z,9.70
2019-05-09T02:55:19.590Z,9.70
2019-05-09T02:57:50.701Z,9.70
2019-05-09T03:00:30.298Z,9.70
2019-05-09T03:03:13.920Z,9.70
2019-05-09T03:05:43.589Z,9.80
2019-05-09T03:08:13.186Z,9.80
2019-05-09T03:10:43.370Z,9.80
2019-05-09T03:13:13.381Z,9.70
2019-05-09T03:15:43.653Z,9.80
2019-05-09T03:18:13.308Z,9.80
2019-05-09T03:21:01.872Z,9.90
2019-05-09T03:23:31.544Z,9.80
2019-05-09T03:26:01.086Z,9.90
2019-05-09T03:28:49.230Z,10.00
2019-05-09T03:31:19.987Z,9.90
2019-05-09T03:33:50.449Z,9.90
2019-05-09T03:36:20.498Z,9.90
2019-05-09T03:38:49.951Z,10.00
2019-05-09T03:41:19.729Z,9.90
2019-05-09T03:43:49.599Z,9.90
2019-05-09T03:46:27.910Z,9.90
2019-05-09T03:48:58.454Z,9.90
2019-05-09T03:51:28.226Z,9.90
2019-05-09T03:53:57.877Z,9.90
2019-05-09T03:56:32.176Z,9.90
2019-05-09T03:59:01.676Z,9.90
2019-05-09T04:01:31.401Z,9.90
2019-05-09T04:04:01.074Z,9.90
2019-05-09T04:06:30.535Z,9.90
2019-05-09T04:09:00.243Z,10.00
2019-05-09T04:11:29.997Z,10.00
2019-05-09T04:14:03.911Z,9.90
2019-05-09T04:16:33.783Z,10.00
2019-05-09T04:19:03.492Z,10.00
2019-05-09T04:21:33.447Z,10.00
2019-05-09T04:24:02.871Z,10.00
2019-05-09T04:26:48.391Z,10.00
2019-05-09T04:29:18.533Z,9.90
2019-05-09T04:31:48.999Z,9.80
2019-05-09T04:34:19.078Z,9.80
2019-05-09T04:36:49.180Z,9.80
2019-05-09T04:39:23.722Z,9.80
2019-05-09T04:41:50.501Z,9.80
2019-05-09T04:44:28.519Z,9.70
2019-05-09T04:47:00.053Z,9.90
2019-05-09T04:49:30.085Z,9.90
2019-05-09T04:52:01.015Z,9.90
2019-05-09T04:54:30.628Z,10.00
2019-05-09T04:57:00.194Z,10.00
2019-05-09T04:59:29.675Z,10.10
2019-05-09T05:02:18.360Z,10.10
2019-05-09T05:04:48.072Z,10.30
2019-05-09T05:07:18.244Z,10.30
2019-05-09T05:09:48.491Z,10.30
2019-05-09T05:12:19.159Z,10.30
2019-05-09T05:14:49.033Z,10.40
2019-05-09T05:17:18.473Z,10.50
2019-05-09T05:19:48.908Z,10.50
2019-05-09T05:22:33.021Z,10.60
2019-05-09T05:25:04.995Z,10.70
2019-05-09T05:27:34.687Z,10.90
2019-05-09T05:30:07.345Z,11.00
2019-05-09T05:32:51.690Z,11.00
2019-05-09T05:35:48.013Z,11.10
2019-05-09T05:38:17.748Z,11.10
2019-05-09T05:40:49.714Z,11.70
2019-05-09T05:43:18.857Z,12.00
2019-05-09T05:46:07.552Z,12.30
2019-05-09T05:48:38.356Z,12.30
2019-05-09T05:51:08.209Z,12.10
2019-05-09T05:53:38.102Z,12.10
2019-05-09T05:56:08.508Z,11.90
2019-05-09T05:58:39.662Z,11.80
2019-05-09T06:01:09.572Z,11.70
2019-05-09T06:03:39.465Z,11.60
2019-05-09T06:06:09.071Z,11.50
2019-05-09T06:08:38.950Z,11.30
2019-05-09T06:11:12.124Z,11.30
2019-05-09T06:13:53.233Z,11.20
2019-05-09T06:16:11.675Z,11.10
2019-05-09T06:18:42.376Z,11.20
2019-05-09T06:21:11.789Z,11.20
2019-05-09T06:23:41.547Z,11.20
2019-05-09T06:26:11.017Z,11.10
2019-05-09T06:28:40.452Z,11.20
2019-05-09T06:31:10.522Z,11.20
2019-05-09T06:33:46.290Z,11.20
2019-05-09T06:36:11.625Z,11.10
2019-05-09T06:38:41.333Z,11.00
2019-05-09T06:41:12.242Z,11.00
2019-05-09T06:43:43.328Z,11.00
2019-05-09T06:46:44.492Z,10.90
2019-05-09T06:49:27.602Z,10.90
2019-05-09T06:51:49.852Z,10.80
2019-05-09T06:54:19.337Z,10.90
2019-05-09T06:56:51.853Z,10.90
2019-05-09T06:59:21.800Z,11.10
2019-05-09T07:01:57.618Z,11.10
2019-05-09T07:04:40.146Z,11.30
2019-05-09T07:07:31.212Z,11.40
2019-05-09T07:10:02.540Z,11.40
2019-05-09T07:12:32.093Z,11.20
2019-05-09T07:15:03.340Z,10.40
2019-05-09T07:17:32.425Z,11.20
2019-05-09T07:20:01.947Z,11.20
2019-05-09T07:22:38.960Z,11.20
2019-05-09T07:25:29.552Z,11.20
2019-05-09T07:27:59.895Z,11.20
2019-05-09T07:30:48.740Z,11.20
2019-05-09T07:33:34.926Z,11.10
2019-05-09T07:36:04.925Z,11.20
2019-05-09T07:38:35.448Z,11.20
2019-05-09T07:41:05.428Z,11.20
2019-05-09T07:43:38.311Z,11.30
2019-05-09T07:46:14.376Z,11.20
2019-05-09T07:48:44.786Z,11.30
2019-05-09T07:51:14.957Z,11.40
2019-05-09T07:53:45.029Z,11.50
2019-05-09T07:56:15.123Z,11.50
2019-05-09T07:58:47.608Z,11.60
2019-05-09T08:01:19.054Z,11.50
2019-05-09T08:03:49.751Z,11.70
2019-05-09T08:06:20.391Z,11.60
2019-05-09T08:08:50.233Z,11.70
2019-05-09T08:11:19.923Z,11.80
2019-05-09T08:13:49.481Z,12.00
2019-05-09T08:16:19.300Z,12.20
2019-05-09T08:18:51.933Z,12.30
2019-05-09T08:21:22.198Z,12.40
2019-05-09T08:23:51.987Z,12.50
2019-05-09T08:26:21.341Z,12.60
2019-05-09T08:28:50.954Z,12.70
2019-05-09T08:31:20.322Z,12.60
2019-05-09T08:33:49.968Z,12.80
2019-05-09T08:36:20.243Z,12.90
2019-05-09T08:38:49.944Z,12.90
2019-05-09T08:41:24.026Z,13.00
2019-05-09T08:43:53.445Z,13.00
2019-05-09T08:46:23.402Z,12.90
2019-05-09T08:48:52.778Z,12.60
2019-05-09T08:52:04.542Z,12.40
2019-05-09T08:54:37.875Z,12.50
2019-05-09T08:57:07.609Z,12.50
2019-05-09T08:59:38.265Z,12.40
2019-05-09T09:02:14.428Z,12.50
2019-05-09T09:04:39.949Z,12.60
2019-05-09T09:07:09.449Z,12.60
2019-05-09T09:09:38.950Z,12.70
2019-05-09T09:12:23.052Z,12.70
2019-05-09T09:14:39.533Z,12.60
2019-05-09T09:17:09.893Z,12.50
2019-05-09T09:19:39.933Z,12.60
2019-05-09T09:22:10.779Z,12.60
2019-05-09T09:24:48.150Z,12.60
2019-05-09T09:27:21.455Z,12.70
2019-05-09T09:29:53.886Z,12.60
2019-05-09T09:32:23.828Z,12.70
2019-05-09T09:34:53.458Z,12.90
2019-05-09T09:37:22.730Z,13.20
2019-05-09T09:40:03.829Z,13.80
2019-05-09T09:42:39.911Z,14.30
2019-05-09T09:45:14.948Z,14.70
2019-05-09T09:47:45.249Z,14.90
2019-05-09T09:50:19.724Z,14.80
2019-05-09T09:52:49.307Z,14.90
2019-05-09T09:55:19.874Z,14.60
2019-05-09T09:57:51.482Z,14.40
2019-05-09T10:00:55.228Z,14.40
2019-05-09T10:03:25.382Z,14.30
2019-05-09T10:05:54.773Z,14.20
2019-05-09T10:08:24.421Z,14.60
2019-05-09T10:10:53.627Z,14.80
2019-05-09T10:13:24.504Z,14.60
2019-05-09T10:16:29.422Z,14.60
2019-05-09T10:19:19.314Z,14.40
2019-05-09T10:21:51.869Z,14.40
2019-05-09T10:24:21.281Z,14.70
2019-05-09T10:27:08.820Z,14.70
2019-05-09T10:29:39.392Z,14.60
2019-05-09T10:32:11.940Z,14.70
2019-05-09T10:34:41.401Z,14.60
2019-05-09T10:37:15.130Z,14.50
2019-05-09T10:39:44.500Z,14.40
2019-05-09T10:42:30.604Z,14.10
2019-05-09T10:45:20.881Z,13.90
2019-05-09T10:47:50.280Z,13.70
2019-05-09T10:50:20.010Z,13.50
2019-05-09T10:52:49.914Z,13.40
2019-05-09T10:55:19.677Z,13.10
2019-05-09T10:57:52.272Z,13.10
2019-05-09T11:00:21.464Z,12.90
2019-05-09T11:02:58.203Z,12.70
2019-05-09T11:05:29.481Z,12.70
2019-05-09T11:07:59.026Z,12.70
2019-05-09T11:10:31.911Z,12.70
2019-05-09T11:13:02.811Z,12.60
2019-05-09T11:15:37.535Z,12.60
2019-05-09T11:18:08.177Z,12.50
2019-05-09T11:20:39.352Z,12.50
2019-05-09T11:23:13.449Z,12.50
2019-05-09T11:25:44.442Z,12.60
2019-05-09T11:28:17.880Z,12.60
2019-05-09T11:30:47.630Z,12.70
2019-05-09T11:33:18.277Z,12.70
2019-05-09T11:35:49.118Z,12.60
2019-05-09T11:38:43.861Z,12.70
2019-05-09T11:41:13.508Z,12.70
2019-05-09T11:43:43.012Z,12.60
2019-05-09T11:46:12.336Z,12.70
2019-05-09T11:49:08.195Z,12.70
2019-05-09T11:51:36.887Z,12.80
2019-05-09T11:54:08.898Z,12.90
2019-05-09T11:56:38.386Z,12.80
2019-05-09T11:59:08.389Z,12.80
2019-05-09T12:01:39.761Z,12.90
2019-05-09T12:04:08.998Z,12.90
2019-05-09T12:06:38.535Z,13.00
2019-05-09T12:09:09.051Z,13.00
2019-05-09T12:11:43.495Z,12.80
2019-05-09T12:14:09.631Z,12.80
2019-05-09T12:16:39.167Z,12.80
2019-05-09T12:19:08.738Z,12.80
2019-05-09T12:21:46.536Z,12.70
2019-05-09T12:24:09.200Z,12.70
2019-05-09T12:26:39.362Z,12.60
2019-05-09T12:29:09.146Z,12.70
2019-05-09T12:31:39.005Z,12.70
2019-05-09T12:34:09.115Z,12.80
2019-05-09T12:36:39.732Z,13.70
2019-05-09T12:39:18.763Z,13.10
2019-05-09T12:41:49.078Z,13.20
2019-05-09T12:44:18.619Z,13.10
2019-05-09T12:46:48.977Z,13.20
2019-05-09T12:49:19.185Z,13.20
2019-05-09T12:51:49.670Z,13.40
2019-05-09T12:54:19.255Z,13.40
2019-05-09T12:56:48.778Z,13.30
2019-05-09T12:59:18.889Z,13.40
2019-05-09T13:01:49.180Z,13.40
2019-05-09T13:04:18.842Z,13.50
2019-05-09T13:06:48.805Z,13.50
2019-05-09T13:09:19.381Z,13.70
2019-05-09T13:11:48.754Z,13.80
2019-05-09T13:14:19.234Z,13.80
2019-05-09T13:17:08.195Z,13.70
2019-05-09T13:19:42.349Z,13.80
2019-05-09T13:22:11.756Z,13.60
2019-05-09T13:24:42.176Z,13.50
2019-05-09T13:27:12.027Z,13.60
2019-05-09T13:29:42.296Z,13.90
2019-05-09T13:32:12.383Z,13.80
2019-05-09T13:34:41.679Z,13.80
2019-05-09T13:37:11.383Z,13.60
2019-05-09T13:39:41.256Z,13.60
2019-05-09T13:42:10.565Z,13.70
2019-05-09T13:44:41.571Z,13.70
2019-05-09T13:47:11.296Z,13.90
2019-05-09T13:49:40.820Z,14.00
2019-05-09T13:52:10.360Z,14.10
2019-05-09T13:54:40.522Z,14.10
2019-05-09T13:57:09.773Z,14.00
2019-05-09T13:59:39.472Z,14.00
2019-05-09T14:02:08.719Z,13.90
2019-05-09T14:04:39.559Z,13.90
2019-05-09T14:07:09.606Z,13.80
2019-05-09T14:09:39.313Z,14.00
2019-05-09T14:12:09.339Z,14.10
2019-05-09T14:14:39.644Z,14.10
2019-05-09T14:17:13.540Z,14.30
2019-05-09T14:19:45.999Z,14.40
2019-05-09T14:22:11.203Z,14.30
2019-05-09T14:24:40.628Z,14.20
2019-05-09T14:27:09.955Z,14.20
2019-05-09T14:29:39.400Z,14.30
2019-05-09T14:32:08.779Z,14.30
2019-05-09T14:34:42.359Z,14.30
2019-05-09T14:37:10.237Z,14.40
2019-05-09T14:39:54.558Z,14.30
2019-05-09T14:42:10.894Z,14.30
2019-05-09T14:44:41.412Z,14.10
2019-05-09T14:47:10.881Z,14.10
2019-05-09T14:49:44.633Z,14.10
2019-05-09T14:52:12.833Z,14.30
2019-05-09T14:54:42.250Z,14.10
2019-05-09T14:57:11.540Z,14.20
2019-05-09T14:59:40.997Z,14.30
2019-05-09T15:02:10.594Z,14.20
2019-05-09T15:04:40.198Z,14.30
2019-05-09T15:07:09.539Z,14.30
2019-05-09T15:09:38.836Z,14.60
2019-05-09T15:12:08.678Z,14.90
2019-05-09T15:14:38.406Z,15.10
2019-05-09T15:17:08.864Z,15.40
2019-05-09T15:19:38.686Z,15.00
2019-05-09T15:22:08.721Z,15.10
2019-05-09T15:24:49.124Z,15.00
2019-05-09T15:27:21.855Z,14.90
2019-05-09T15:29:51.218Z,14.90
2019-05-09T15:32:20.565Z,14.90
2019-05-09T15:34:49.887Z,14.80
2019-05-09T15:37:20.401Z,14.80
2019-05-09T15:39:49.872Z,14.60
2019-05-09T15:42:19.316Z,14.60
2019-05-09T15:44:48.992Z,14.50
2019-05-09T15:47:22.913Z,14.20
2019-05-09T15:49:52.076Z,14.00
2019-05-09T15:52:21.374Z,13.70
2019-05-09T15:54:50.728Z,13.70
2019-05-09T15:57:20.406Z,13.70
2019-05-09T15:59:49.801Z,13.70
2019-05-09T16:02:19.464Z,13.70
2019-05-09T16:04:49.230Z,13.60
2019-05-09T16:07:18.529Z,13.60
2019-05-09T16:09:48.420Z,13.70
2019-05-09T16:12:18.571Z,13.90
2019-05-09T16:14:48.711Z,13.80
2019-05-09T16:17:19.077Z,14.00
2019-05-09T16:19:48.822Z,14.20
2019-05-09T16:22:18.931Z,14.20
2019-05-09T16:24:48.953Z,14.30
2019-05-09T16:27:18.351Z,14.30
2019-05-09T16:29:48.566Z,14.40
2019-05-09T16:32:18.502Z,14.40
2019-05-09T16:34:47.860Z,14.40
2019-05-09T16:37:17.608Z,14.40
2019-05-09T16:39:47.659Z,14.50
2019-05-09T16:42:17.142Z,14.50
2019-05-09T16:44:48.095Z,14.60
2019-05-09T16:47:21.778Z,14.70
2019-05-09T16:49:48.633Z,14.70
2019-05-09T16:52:18.054Z,14.60
2019-05-09T16:54:50.119Z,14.50
2019-05-09T16:57:21.755Z,14.40
2019-05-09T16:59:50.904Z,14.40
2019-05-09T17:02:24.854Z,14.30
2019-05-09T17:04:51.703Z,14.30
2019-05-09T17:07:21.066Z,14.30
2019-05-09T17:09:50.369Z,14.30
2019-05-09T17:12:19.759Z,14.30
2019-05-09T17:14:49.724Z,14.40
2019-05-09T17:17:20.949Z,14.40
2019-05-09T17:19:50.170Z,14.40
2019-05-09T17:22:38.840Z,14.30
2019-05-09T17:25:08.423Z,14.40
2019-05-09T17:27:38.678Z,14.30
2019-05-09T17:30:08.605Z,14.30
2019-05-09T17:32:44.465Z,14.20
2019-05-09T17:35:13.734Z,14.20
2019-05-09T17:37:43.082Z,14.20
2019-05-09T17:40:15.920Z,14.10
2019-05-09T17:42:45.601Z,14.10
2019-05-09T17:45:15.905Z,14.10
2019-05-09T17:47:45.288Z,14.10
2019-05-09T17:50:14.898Z,14.10
2019-05-09T17:52:44.660Z,14.00
2019-05-09T17:55:14.421Z,14.00
2019-05-09T17:57:44.567Z,14.00
2019-05-09T18:00:14.623Z,14.00
2019-05-09T18:02:44.625Z,14.00
2019-05-09T18:05:14.261Z,14.00
2019-05-09T18:07:43.690Z,13.90
2019-05-09T18:10:15.237Z,13.90
2019-05-09T18:12:44.703Z,13.80
2019-05-09T18:15:15.735Z,13.80
2019-05-09T18:17:47.880Z,13.80
2019-05-09T18:20:17.849Z,13.80
2019-05-09T18:22:48.057Z,13.80
2019-05-09T18:25:18.784Z,13.70
2019-05-09T18:27:49.043Z,13.70
2019-05-09T18:30:20.477Z,13.70
2019-05-09T18:33:02.117Z,13.70
2019-05-09T18:35:32.271Z,13.70
2019-05-09T18:38:02.491Z,13.70
2019-05-09T18:40:32.241Z,13.60
2019-05-09T18:43:01.755Z,13.60
2019-05-09T18:45:32.208Z,13.60
2019-05-09T18:48:01.605Z,13.60
2019-05-09T18:50:30.980Z,13.60
2019-05-09T18:53:00.791Z,13.50
2019-05-09T18:55:30.170Z,13.60
2019-05-09T18:57:59.500Z,13.50
2019-05-09T19:00:29.244Z,13.50
2019-05-09T19:02:58.618Z,13.50
2019-05-09T19:05:27.941Z,13.50
2019-05-09T19:07:57.350Z,13.30
2019-05-09T19:10:26.867Z,13.20
2019-05-09T19:12:56.594Z,13.10
2019-05-09T19:18:17.583Z,13.00
2019-05-09T19:20:51.810Z,12.90
2019-05-09T19:23:21.308Z,12.90
2019-05-09T19:25:51.294Z,12.90
2019-05-09T19:28:24.298Z,12.90
2019-05-09T19:30:53.970Z,12.80
2019-05-09T19:33:24.287Z,12.80
2019-05-09T19:35:54.089Z,12.80
2019-05-09T19:38:23.843Z,12.80
2019-05-09T19:40:53.636Z,12.80
2019-05-09T19:43:23.071Z,12.90
2019-05-09T19:45:52.721Z,12.90
2019-05-09T19:48:22.098Z,13.00
2019-05-09T19:50:51.468Z,13.00
2019-05-09T19:53:20.912Z,13.00
2019-05-09T19:55:50.445Z,13.00
2019-05-09T19:58:19.830Z,13.10
2019-05-09T20:00:49.646Z,13.00
2019-05-09T20:03:18.932Z,13.00
2019-05-09T20:05:48.410Z,12.90
2019-05-09T20:08:18.084Z,12.90
2019-05-09T20:11:05.149Z,12.90
2019-05-09T20:13:52.765Z,12.80
2019-05-09T20:16:22.106Z,12.80
2019-05-09T20:18:51.928Z,12.80
2019-05-09T20:21:21.294Z,12.80
2019-05-09T20:23:50.933Z,12.80
2019-05-09T20:26:21.093Z,12.70
2019-05-09T20:28:50.881Z,12.70
2019-05-09T20:31:20.455Z,12.60
2019-05-09T20:33:50.307Z,12.60
2019-05-09T20:36:19.808Z,12.60
2019-05-09T20:38:49.543Z,12.60
2019-05-09T20:41:19.405Z,12.60
2019-05-09T20:43:48.905Z,12.60
2019-05-09T20:46:18.833Z,12.60
2019-05-09T20:48:48.269Z,12.60
2019-05-09T20:51:18.241Z,12.60
2019-05-09T20:53:47.697Z,12.70
2019-05-09T20:56:17.479Z,12.70
2019-05-09T20:58:46.892Z,12.70
2019-05-09T21:01:16.685Z,12.70
2019-05-09T21:03:59.600Z,12.70
2019-05-09T21:06:18.870Z,12.70
2019-05-09T21:08:48.400Z,12.70
2019-05-09T21:11:17.889Z,12.70
2019-05-09T21:13:48.779Z,12.70
2019-05-09T21:16:18.629Z,12.70
2019-05-09T21:18:48.409Z,12.70
2019-05-09T21:21:17.874Z,12.70
2019-05-09T21:23:47.344Z,12.70
2019-05-09T21:26:17.065Z,12.70
2019-05-09T21:28:46.874Z,12.70
2019-05-09T21:31:16.621Z,12.70
2019-05-09T21:33:46.157Z,12.70
2019-05-09T21:36:15.313Z,12.70
2019-05-09T21:38:44.573Z,12.60
2019-05-09T21:41:13.749Z,12.60
2019-05-09T21:43:42.921Z,12.60
2019-05-09T21:46:12.483Z,12.60
2019-05-09T21:48:41.737Z,12.60
2019-05-09T21:51:10.973Z,12.60
2019-05-09T21:53:41.438Z,12.50
2019-05-09T21:56:10.846Z,12.50
2019-05-09T21:58:40.195Z,12.50
2019-05-09T22:01:13.453Z,12.50
2019-05-09T22:03:42.710Z,12.50
2019-05-09T22:06:12.681Z,12.50
2019-05-09T22:08:41.984Z,12.50
2019-05-09T22:11:11.749Z,12.50
2019-05-09T22:13:41.042Z,12.50
2019-05-09T22:16:10.354Z,12.50
2019-05-09T22:18:40.176Z,12.50
2019-05-09T22:21:11.063Z,12.50
2019-05-09T22:23:55.167Z,12.50
2019-05-09T22:26:11.393Z,12.50
2019-05-09T22:28:40.802Z,12.50
2019-05-09T22:31:10.484Z,12.50
2019-05-09T22:33:39.666Z,12.50
2019-05-09T22:36:09.263Z,12.40
2019-05-09T22:38:38.550Z,12.40
2019-05-09T22:41:08.386Z,12.40
2019-05-09T22:43:37.990Z,12.40
2019-05-09T22:46:07.442Z,12.40
2019-05-09T22:48:36.774Z,12.30
2019-05-09T22:51:06.186Z,12.30
2019-05-09T22:53:35.992Z,12.30
2019-05-09T22:56:05.344Z,12.20
2019-05-09T22:58:34.680Z,12.20
2019-05-09T23:01:03.950Z,12.20
2019-05-09T23:03:34.022Z,12.20
2019-05-09T23:06:03.368Z,12.10
2019-05-09T23:08:32.678Z,12.10
2019-05-09T23:11:01.848Z,12.10
2019-05-09T23:13:33.858Z,12.10
2019-05-09T23:16:03.268Z,12.00
2019-05-09T23:18:32.520Z,12.00
2019-05-09T23:21:01.795Z,12.00
2019-05-09T23:23:37.842Z,12.00
2019-05-09T23:26:07.174Z,12.00
2019-05-09T23:28:36.500Z,12.00
2019-05-09T23:31:09.949Z,11.90
2019-05-09T23:33:40.987Z,11.90
2019-05-09T23:36:10.294Z,11.80
2019-05-09T23:38:57.925Z,11.80
2019-05-09T23:41:27.198Z,11.80
2019-05-09T23:43:56.427Z,11.80
2019-05-09T23:46:25.760Z,11.80
2019-05-09T23:48:55.147Z,11.90
2019-05-09T23:51:27.483Z,11.90
2019-05-09T23:53:55.837Z,11.90
2019-05-09T23:56:42.742Z,11.90
2019-05-09T23:59:29.686Z,11.90
